地図

経路データ

SID SEASON NUMBER BASIN SUBBASIN NAME ISO_TIME NATURE LAT LON WMO_WIND WMO_PRES WMO_AGENCY TRACK_TYPE DIST2LAND LANDFALL IFLAG USA_AGENCY USA_ATCF_ID USA_LAT USA_LON USA_RECORD USA_STATUS USA_WIND USA_PRES USA_SSHS USA_R34_NE USA_R34_SE USA_R34_SW USA_R34_NW USA_R50_NE USA_R50_SE USA_R50_SW USA_R50_NW USA_R64_NE USA_R64_SE USA_R64_SW USA_R64_NW USA_POCI USA_ROCI USA_RMW USA_EYE TOKYO_LAT TOKYO_LON TOKYO_GRADE TOKYO_WIND TOKYO_PRES TOKYO_R50_DIR TOKYO_R50_LONG TOKYO_R50_SHORT TOKYO_R30_DIR TOKYO_R30_LONG TOKYO_R30_SHORT TOKYO_LAND CMA_LAT CMA_LON CMA_CAT CMA_WIND CMA_PRES HKO_LAT HKO_LON HKO_CAT HKO_WIND HKO_PRES NEWDELHI_LAT NEWDELHI_LON NEWDELHI_GRADE NEWDELHI_WIND NEWDELHI_PRES NEWDELHI_CI NEWDELHI_DP NEWDELHI_POCI REUNION_LAT REUNION_LON REUNION_TYPE REUNION_WIND REUNION_PRES REUNION_TNUM REUNION_CI REUNION_RMW REUNION_R34_NE REUNION_R34_SE REUNION_R34_SW REUNION_R34_NW REUNION_R50_NE REUNION_R50_SE REUNION_R50_SW REUNION_R50_NW REUNION_R64_NE REUNION_R64_SE REUNION_R64_SW REUNION_R64_NW BOM_LAT BOM_LON BOM_TYPE BOM_WIND BOM_PRES BOM_TNUM BOM_CI BOM_RMW BOM_R34_NE BOM_R34_SE BOM_R34_SW BOM_R34_NW BOM_R50_NE BOM_R50_SE BOM_R50_SW BOM_R50_NW BOM_R64_NE BOM_R64_SE BOM_R64_SW BOM_R64_NW BOM_ROCI BOM_POCI BOM_EYE BOM_POS_METHOD BOM_PRES_METHOD NADI_LAT NADI_LON NADI_CAT NADI_WIND NADI_PRES WELLINGTON_LAT WELLINGTON_LON WELLINGTON_WIND WELLINGTON_PRES DS824_LAT DS824_LON DS824_STAGE DS824_WIND DS824_PRES TD9636_LAT TD9636_LON TD9636_STAGE TD9636_WIND TD9636_PRES TD9635_LAT TD9635_LON TD9635_WIND TD9635_PRES TD9635_ROCI NEUMANN_LAT NEUMANN_LON NEUMANN_CLASS NEUMANN_WIND NEUMANN_PRES MLC_LAT MLC_LON MLC_CLASS MLC_WIND MLC_PRES USA_GUST BOM_GUST BOM_GUST_PER REUNION_GUST REUNION_GUST_PER USA_SEAHGT USA_SEARAD_NE USA_SEARAD_SE USA_SEARAD_SW USA_SEARAD_NW STORM_SPEED STORM_DIR
1941261N27281 1941 59 NA NA NOT_NAMED 1941-09-18 00:00:00 TS 26.8000 -78.7000 30 hurdat_atl main 128 128 O_____________ hurdat_atl AL031941 26.8000 -78.7000 TD 30 -1 11 4
1941261N27281 1941 59 NA NA NOT_NAMED 1941-09-18 03:00:00 TS 27.3250 -78.6501 main 140 140 P_____________ AL031941 27.3250 -78.6501 TD 30 -1 10 5
1941261N27281 1941 59 NA NA NOT_NAMED 1941-09-18 06:00:00 TS 27.8000 -78.6000 30 hurdat_atl main 171 171 O_____________ hurdat_atl AL031941 27.8000 -78.6000 TD 30 -1 9 6
1941261N27281 1941 59 NA NA NOT_NAMED 1941-09-18 09:00:00 TS 28.1875 -78.5500 main 198 195 P_____________ AL031941 28.1875 -78.5500 TD 30 -1 7 7
1941261N27281 1941 59 NA NA NOT_NAMED 1941-09-18 12:00:00 TS 28.5000 -78.5000 30 hurdat_atl main 195 195 O_____________ hurdat_atl AL031941 28.5000 -78.5000 TD 30 -1 6 8
1941261N27281 1941 59 NA NA NOT_NAMED 1941-09-18 15:00:00 TS 28.7950 -78.4575 main 197 197 P_____________ AL031941 28.7950 -78.4575 TD 30 -1 5 10
1941261N27281 1941 59 NA NA NOT_NAMED 1941-09-18 18:00:00 TS 29.0000 -78.4000 30 hurdat_atl main 211 211 O_____________ hurdat_atl AL031941 29.0000 -78.4000 TD 30 -1 3 19
1941261N27281 1941 59 NA NA NOT_NAMED 1941-09-18 21:00:00 TS 29.0798 -78.3449 main 224 224 P_____________ AL031941 29.0798 -78.3449 TD 32 -1 2 60
1941261N27281 1941 59 NA NA NOT_NAMED 1941-09-19 00:00:00 TS 29.1000 -78.2000 35 hurdat_atl main 233 233 O_____________ hurdat_atl AL031941 29.1000 -78.2000 TS 35 0 4 79
1941261N27281 1941 59 NA NA NOT_NAMED 1941-09-19 03:00:00 TS 29.1498 -77.9249 main 261 261 P_____________ AL031941 29.1498 -77.9249 TS 35 0 6 81
1941261N27281 1941 59 NA NA NOT_NAMED 1941-09-19 06:00:00 TS 29.2000 -77.5000 35 hurdat_atl main 302 302 O_____________ hurdat_atl AL031941 29.2000 -77.5000 TS 35 0 8 83
1941261N27281 1941 59 NA NA NOT_NAMED 1941-09-19 09:00:00 TS 29.2498 -76.9599 main 349 349 P_____________ AL031941 29.2498 -76.9599 TS 37 0 11 85
1941261N27281 1941 59 NA NA NOT_NAMED 1941-09-19 12:00:00 TS 29.3000 -76.3000 40 hurdat_atl main 417 417 O_____________ hurdat_atl AL031941 29.3000 -76.3000 TS 40 0 12 86
1941261N27281 1941 59 NA NA NOT_NAMED 1941-09-19 15:00:00 TS 29.3424 -75.5723 main 484 484 P_____________ AL031941 29.3424 -75.5723 TS 42 0 13 86
1941261N27281 1941 59 NA NA NOT_NAMED 1941-09-19 18:00:00 TS 29.4000 -74.8000 45 998 hurdat_atl main 562 562 O_____________ hurdat_atl AL031941 29.4000 -74.8000 TS 45 998 0 13 84
1941261N27281 1941 59 NA NA NOT_NAMED 1941-09-19 21:00:00 TS 29.4921 -74.0500 main 613 613 P_____________ AL031941 29.4921 -74.0500 TS 47 0 13 81
1941261N27281 1941 59 NA NA NOT_NAMED 1941-09-20 00:00:00 TS 29.6000 -73.3000 50 hurdat_atl main 643 643 O_____________ hurdat_atl AL031941 29.6000 -73.3000 TS 50 0 13 81
1941261N27281 1941 59 NA NA NOT_NAMED 1941-09-20 03:00:00 TS 29.7075 -72.5201 main 672 672 P_____________ AL031941 29.7075 -72.5201 TS 52 0 13 81
1941261N27281 1941 59 NA NA NOT_NAMED 1941-09-20 06:00:00 TS 29.8000 -71.8000 55 hurdat_atl main 702 702 O_____________ hurdat_atl AL031941 29.8000 -71.8000 TS 55 0 12 82
1941261N27281 1941 59 NA NA NOT_NAMED 1941-09-20 09:00:00 TS 29.8725 -71.1450 main 736 736 P_____________ AL031941 29.8725 -71.1450 TS 57 0 10 84
1941261N27281 1941 59 NA NA NOT_NAMED 1941-09-20 12:00:00 TS 29.9000 -70.7000 60 993 hurdat_atl main 763 763 O_____________ hurdat_atl AL031941 29.9000 -70.7000 TS 60 993 0 5 91
1941261N27281 1941 59 NA NA NOT_NAMED 1941-09-20 15:00:00 TS 29.8646 -70.5674 main 769 769 P_____________ AL031941 29.8646 -70.5674 TS 60 993 0 1 140
1941261N27281 1941 59 NA NA NOT_NAMED 1941-09-20 18:00:00 TS 29.8000 -70.6000 60 hurdat_atl main 777 777 I_____________ hurdat_atl AL031941 29.8000 -70.6000 TS 60 994 0 1 0
1941261N27281 1941 59 NA NA NOT_NAMED 1941-09-20 21:00:00 TS 29.7575 -70.5850 main 777 777 P_____________ AL031941 29.7575 -70.5850 TS 60 994 0 1 0
1941261N27281 1941 59 NA NA NOT_NAMED 1941-09-21 00:00:00 TS 29.7000 -70.6000 60 995 hurdat_atl main 785 785 O_____________ hurdat_atl AL031941 29.7000 -70.6000 TS 60 995 0 2 200
1941261N27281 1941 59 NA NA NOT_NAMED 1941-09-21 03:00:00 TS 29.6000 -70.6425 main 794 787 P_____________ AL031941 29.6000 -70.6425 TS 60 0 2 205
1941261N27281 1941 59 NA NA NOT_NAMED 1941-09-21 06:00:00 TS 29.5000 -70.7000 60 hurdat_atl main 795 795 O_____________ hurdat_atl AL031941 29.5000 -70.7000 TS 60 0 2 198
1941261N27281 1941 59 NA NA NOT_NAMED 1941-09-21 09:00:00 TS 29.4274 -70.7125 main 804 797 P_____________ AL031941 29.4274 -70.7125 TS 60 0 1 220
1941261N27281 1941 59 NA NA NOT_NAMED 1941-09-21 12:00:00 TS 29.4000 -70.8000 60 hurdat_atl main 797 785 O_____________ hurdat_atl AL031941 29.4000 -70.8000 TS 60 0 3 267
1941261N27281 1941 59 NA NA NOT_NAMED 1941-09-21 15:00:00 TS 29.4124 -71.0328 main 785 752 P_____________ AL031941 29.4124 -71.0328 TS 60 0 5 281
1941261N27281 1941 59 NA NA NOT_NAMED 1941-09-21 18:00:00 TS 29.5000 -71.4000 60 hurdat_atl main 752 711 O_____________ hurdat_atl AL031941 29.5000 -71.4000 TS 60 0 8 289
1941261N27281 1941 59 NA NA NOT_NAMED 1941-09-21 21:00:00 TS 29.6702 -71.8773 main 705 659 P_____________ AL031941 29.6702 -71.8773 TS 62 0 10 295
1941261N27281 1941 59 NA NA NOT_NAMED 1941-09-22 00:00:00 TS 29.9000 -72.4000 65 hurdat_atl main 659 613 O_____________ hurdat_atl AL031941 29.9000 -72.4000 HU 65 1 10 297
1941261N27281 1941 59 NA NA NOT_NAMED 1941-09-22 03:00:00 TS 30.1200 -72.8876 main 613 565 P_____________ AL031941 30.1200 -72.8876 HU 67 1 9 303
1941261N27281 1941 59 NA NA NOT_NAMED 1941-09-22 06:00:00 TS 30.4000 -73.3000 70 hurdat_atl main 565 521 O_____________ hurdat_atl AL031941 30.4000 -73.3000 HU 70 1 9 315
1941261N27281 1941 59 NA NA NOT_NAMED 1941-09-22 09:00:00 TS 30.7699 -73.6395 main 512 464 P_____________ AL031941 30.7699 -73.6395 HU 70 1 9 332
1941261N27281 1941 59 NA NA NOT_NAMED 1941-09-22 12:00:00 TS 31.2000 -73.8000 70 hurdat_atl main 464 432 O_____________ hurdat_atl AL031941 31.2000 -73.8000 HU 70 1 9 358
1941261N27281 1941 59 NA NA NOT_NAMED 1941-09-22 15:00:00 TS 31.6351 -73.6811 main 432 401 P_____________ AL031941 31.6351 -73.6811 HU 70 1 9 16
1941261N27281 1941 59 NA NA NOT_NAMED 1941-09-22 18:00:00 TS 32.1000 -73.5000 70 hurdat_atl main 401 362 O_____________ hurdat_atl AL031941 32.1000 -73.5000 HU 70 1 10 7
1941261N27281 1941 59 NA NA NOT_NAMED 1941-09-22 21:00:00 TS 32.5925 -73.5417 main 362 319 P_____________ AL031941 32.5925 -73.5417 HU 70 1 10 355
1941261N27281 1941 59 NA NA NOT_NAMED 1941-09-23 00:00:00 TS 33.1000 -73.6000 70 hurdat_atl main 319 286 O_____________ hurdat_atl AL031941 33.1000 -73.6000 HU 70 1 10 0
1941261N27281 1941 59 NA NA NOT_NAMED 1941-09-23 03:00:00 TS 33.6074 -73.5523 main 286 267 P_____________ AL031941 33.6074 -73.5523 HU 67 1 10 10
1941261N27281 1941 59 NA NA NOT_NAMED 1941-09-23 06:00:00 TS 34.1000 -73.4000 65 hurdat_atl main 267 253 O_____________ hurdat_atl AL031941 34.1000 -73.4000 HU 65 1 10 19
1941261N27281 1941 59 NA NA NOT_NAMED 1941-09-23 09:00:00 TS 34.5572 -73.1670 main 247 247 P_____________ AL031941 34.5572 -73.1670 HU 65 1 10 29
1941261N27281 1941 59 NA NA NOT_NAMED 1941-09-23 12:00:00 TS 35.0000 -72.8000 65 990 hurdat_atl main 259 259 O_____________ hurdat_atl AL031941 35.0000 -72.8000 HU 65 990 1 12 39
1941261N27281 1941 59 NA NA NOT_NAMED 1941-09-23 15:00:00 TS 35.4653 -72.2804 main 290 290 P_____________ AL031941 35.4653 -72.2804 HU 65 1 13 45
1941261N27281 1941 59 NA NA NOT_NAMED 1941-09-23 18:00:00 TS 35.9000 -71.7000 65 hurdat_atl main 341 341 O_____________ hurdat_atl AL031941 35.9000 -71.7000 HU 65 1 12 48
1941261N27281 1941 59 NA NA NOT_NAMED 1941-09-23 21:00:00 TS 36.2724 -71.1696 main 389 389 P_____________ AL031941 36.2724 -71.1696 HU 62 0 11 49
1941261N27281 1941 59 NA NA NOT_NAMED 1941-09-24 00:00:00 TS 36.6000 -70.7000 60 hurdat_atl main 431 431 O_____________ hurdat_atl AL031941 36.6000 -70.7000 TS 60 0 9 47
1941261N27281 1941 59 NA NA NOT_NAMED 1941-09-24 03:00:00 TS 36.9073 -70.3120 main 449 445 P_____________ AL031941 36.9073 -70.3120 TS 57 0 8 43
1941261N27281 1941 59 NA NA NOT_NAMED 1941-09-24 06:00:00 TS 37.2000 -70.0000 55 hurdat_atl main 453 439 O_____________ hurdat_atl AL031941 37.2000 -70.0000 TS 55 0 8 38
1941261N27281 1941 59 NA NA NOT_NAMED 1941-09-24 09:00:00 TS 37.4998 -69.7346 main 443 424 P_____________ AL031941 37.4998 -69.7346 TS 52 0 7 34
1941261N27281 1941 59 NA NA NOT_NAMED 1941-09-24 12:00:00 TS 37.8000 -69.5000 50 hurdat_atl main 424 396 O_____________ hurdat_atl AL031941 37.8000 -69.5000 TS 50 0 7 33
1941261N27281 1941 59 NA NA NOT_NAMED 1941-09-24 15:00:00 TS 38.0999 -69.2498 main 399 374 P_____________ AL031941 38.0999 -69.2498 TS 47 0 7 33
1941261N27281 1941 59 NA NA NOT_NAMED 1941-09-24 18:00:00 TS 38.4000 -69.0000 45 hurdat_atl main 374 348 O_____________ hurdat_atl AL031941 38.4000 -69.0000 TS 45 0 7 32
1941261N27281 1941 59 NA NA NOT_NAMED 1941-09-24 21:00:00 TS 38.6998 -68.7720 main 348 326 P_____________ AL031941 38.6998 -68.7720 TS 42 0 7 33
1941261N27281 1941 59 NA NA NOT_NAMED 1941-09-25 00:00:00 TS 39.0000 -68.5000 40 hurdat_atl main 326 307 O_____________ hurdat_atl AL031941 39.0000 -68.5000 TS 40 0 8 40
1941261N27281 1941 59 NA NA NOT_NAMED 1941-09-25 03:00:00 TS 39.3001 -68.1224 main 311 298 P_____________ AL031941 39.3001 -68.1224 TS 40 0 9 46
1941261N27281 1941 59 NA NA NOT_NAMED 1941-09-25 06:00:00 ET 39.6000 -67.7000 40 hurdat_atl main 303 296 O_____________ hurdat_atl AL031941 39.6000 -67.7000 EX 40 -4 9 47
1941261N27281 1941 59 NA NA NOT_NAMED 1941-09-25 09:00:00 ET 39.8848 -67.3068 main 302 301 P_____________ AL031941 39.8848 -67.3068 EX 37 -4 9 46
1941261N27281 1941 59 NA NA NOT_NAMED 1941-09-25 12:00:00 ET 40.2000 -66.9000 35 hurdat_atl main 308 308 O_____________ hurdat_atl AL031941 40.2000 -66.9000 EX 35 -4 9 43
1941261N27281 1941 59 NA NA NOT_NAMED 1941-09-25 15:00:00 ET 40.5804 -66.4614 main 316 279 P_____________ AL031941 40.5804 -66.4614 EX 32 -4 11 40
1941261N27281 1941 59 NA NA NOT_NAMED 1941-09-25 18:00:00 ET 41.0000 -66.0000 30 hurdat_atl main 279 O_____________ hurdat_atl AL031941 41.0000 -66.0000 EX 30 -4 11 40

IBTrACS Databaseについて

本データベースは、米国NOAAが公開する1842年以降の世界の熱帯低気圧のベストトラックデータアーカイブInternational Best Track Archive for Climate Stewardship (IBTrACS)を、ウェブで閲覧しやすい形式に変換したものです。

最終更新日:2021-12-03